Time;durP1;ratioP1;P1;durP2;ratioP2;P2;SDS_P1;SDS_P2;PMS_P1;PMS_P2;Temp;Humidity;BMP_temperature;BMP_pressure;BME280_temperature;BME280_humidity;BME280_pressure;Samples;Min_cycle;Max_cycle;Signal;HPM_P1;HPM_P2
2022/06/12 00:01:33;;;;;;;4.85;1.65;;;14.00;99.90;;;;;;5016026;28;20041;-65
2022/06/12 00:04:01;;;;;;;3.38;1.77;;;14.00;99.90;;;;;;5013608;28;20201;-66
2022/06/12 00:06:28;;;;;;;2.90;1.92;;;14.00;99.90;;;;;;5013100;28;20587;-66
2022/06/12 00:08:55;;;;;;;2.00;1.60;;;14.00;99.90;;;;;;5031470;28;20605;-66
2022/06/12 00:11:25;;;;;;;3.70;1.60;;;13.90;99.90;;;;;;5034350;28;20059;-66
2022/06/12 00:13:57;;;;;;;2.20;1.70;;;13.90;99.90;;;;;;4998222;28;20044;-66
2022/06/12 00:16:26;;;;;;;3.58;1.40;;;13.90;99.90;;;;;;5017372;28;20461;-67
2022/06/12 00:18:54;;;;;;;2.63;1.88;;;13.90;99.90;;;;;;5035632;28;20915;-65
2022/06/12 00:21:22;;;;;;;2.80;1.60;;;13.90;99.90;;;;;;5055756;28;20039;-66
2022/06/12 00:23:54;;;;;;;2.00;1.75;;;13.90;99.90;;;;;;5052322;28;20571;-66
2022/06/12 00:26:25;;;;;;;7.47;1.92;;;13.80;99.90;;;;;;5053652;28;20040;-66
2022/06/12 00:29:00;;;;;;;1.58;1.48;;;13.80;99.90;;;;;;4995544;28;20585;-66
2022/06/12 00:31:29;;;;;;;3.15;1.88;;;13.80;99.90;;;;;;5015507;28;20048;-66
2022/06/12 00:33:56;;;;;;;2.20;1.58;;;13.80;99.90;;;;;;5010406;28;20040;-66
2022/06/12 00:36:23;;;;;;;4.25;1.88;;;13.80;99.90;;;;;;4998477;28;20058;-66
2022/06/12 00:38:50;;;;;;;2.75;1.70;;;13.80;99.90;;;;;;5013253;28;20809;-66
2022/06/12 00:41:18;;;;;;;2.42;1.42;;;13.80;99.90;;;;;;5012848;28;20612;-66
2022/06/12 00:43:45;;;;;;;1.52;1.42;;;13.80;99.90;;;;;;5012809;28;20060;-66
2022/06/12 00:46:45;;;;;;;6.50;1.80;;;13.80;99.90;;;;;;5014635;28;20036;-66
2022/06/12 00:49:26;;;;;;;2.20;1.42;;;13.80;99.90;;;;;;5033290;28;20559;-66
2022/06/12 00:52:00;;;;;;;2.80;1.80;;;13.80;99.90;;;;;;5033154;28;20105;-66
2022/06/12 00:54:29;;;;;;;2.50;2.30;;;13.80;99.90;;;;;;5034738;28;20044;-66
2022/06/12 00:56:59;;;;;;;1.58;1.48;;;13.70;99.90;;;;;;5014872;28;20059;-65
2022/06/12 00:59:32;;;;;;;2.38;1.52;;;13.70;99.90;;;;;;5016407;28;20809;-65
2022/06/12 01:01:59;;;;;;;2.33;1.58;;;13.70;99.90;;;;;;5029560;28;20044;-66
2022/06/12 01:07:16;;;;;;;2.55;1.98;;;13.60;99.90;;;;;;5031243;28;20408;-66
2022/06/12 01:09:46;;;;;;;3.75;2.58;;;13.60;99.90;;;;;;5024583;28;20043;-66
2022/06/12 01:12:17;;;;;;;2.63;1.83;;;13.50;99.90;;;;;;5033026;28;20328;-66
2022/06/12 01:14:50;;;;;;;4.97;1.98;;;13.50;99.90;;;;;;5026424;28;20125;-66
2022/06/12 01:17:21;;;;;;;5.15;1.92;;;13.50;99.90;;;;;;5021426;28;20298;-66
2022/06/12 01:19:53;;;;;;;3.22;1.77;;;13.50;99.90;;;;;;5049029;28;20347;-66
2022/06/12 01:22:39;;;;;;;4.75;1.63;;;13.50;99.90;;;;;;5055326;28;20043;-66
2022/06/12 01:25:24;;;;;;;2.33;1.73;;;13.50;99.90;;;;;;5049255;28;20122;-66
2022/06/12 01:27:57;;;;;;;8.77;1.58;;;13.40;99.90;;;;;;5035362;28;20910;-66
2022/06/12 01:30:45;;;;;;;2.55;2.10;;;13.40;99.90;;;;;;5010468;28;20302;-66
2022/06/12 01:33:36;;;;;;;2.25;1.83;;;13.30;99.90;;;;;;5014921;28;20056;-66
2022/06/12 01:36:15;;;;;;;2.65;1.88;;;13.30;99.90;;;;;;5025798;28;20557;-66
2022/06/12 01:38:59;;;;;;;2.55;2.08;;;13.20;99.90;;;;;;5032795;28;20039;-66
2022/06/12 01:41:36;;;;;;;4.88;1.52;;;13.20;99.90;;;;;;5032944;28;20877;-66
2022/06/12 01:44:18;;;;;;;1.88;1.70;;;13.20;99.90;;;;;;5034157;28;20036;-66
2022/06/12 01:47:07;;;;;;;1.98;1.70;;;13.10;99.90;;;;;;5032490;28;20062;-66
2022/06/12 01:49:40;;;;;;;4.90;1.73;;;13.10;99.90;;;;;;5036266;28;20105;-66
2022/06/12 01:52:37;;;;;;;2.10;1.90;;;13.10;99.90;;;;;;5059539;28;20035;-66
2022/06/12 01:55:12;;;;;;;3.42;1.77;;;13.10;99.90;;;;;;5052491;28;20039;-66
2022/06/12 01:58:20;;;;;;;2.63;1.77;;;13.10;99.90;;;;;;5058435;28;20286;-66
2022/06/12 02:01:02;;;;;;;6.30;1.90;;;13.10;99.90;;;;;;5025327;28;20552;-66
2022/06/12 02:03:52;;;;;;;2.78;1.75;;;13.10;99.90;;;;;;5058448;28;20047;-66
2022/06/12 02:06:45;;;;;;;4.00;2.13;;;13.10;99.90;;;;;;5020676;28;20051;-66
2022/06/12 02:09:23;;;;;;;2.35;1.60;;;13.10;99.90;;;;;;5016521;28;20119;-66
2022/06/12 02:15:19;;;;;;;1.65;1.48;;;13.00;99.90;;;;;;5016541;28;20460;-66
2022/06/12 02:18:16;;;;;;;1.60;1.45;;;13.00;99.90;;;;;;5029109;28;20253;-67
2022/06/12 02:20:49;;;;;;;3.25;1.90;;;13.00;99.90;;;;;;5057255;28;20602;-66
2022/06/12 02:23:24;;;;;;;3.75;1.48;;;13.00;99.90;;;;;;5052631;28;20039;-66
2022/06/12 02:25:55;;;;;;;1.88;1.67;;;12.90;99.90;;;;;;5053456;28;20378;-66
2022/06/12 02:28:32;;;;;;;3.00;1.50;;;12.90;99.90;;;;;;5007152;28;20553;-66
2022/06/12 02:31:04;;;;;;;5.03;1.65;;;12.90;99.90;;;;;;5015955;28;20063;-66
2022/06/12 02:33:41;;;;;;;2.00;1.60;;;12.90;99.90;;;;;;5015585;28;20068;-66
2022/06/12 02:36:15;;;;;;;2.10;1.70;;;12.90;99.90;;;;;;5036661;28;20215;-65
2022/06/12 02:38:48;;;;;;;4.40;1.77;;;12.80;99.90;;;;;;5035902;28;20048;-66
2022/06/12 02:41:18;;;;;;;2.70;1.70;;;12.80;99.90;;;;;;5042121;28;20066;-65
2022/06/12 02:43:47;;;;;;;1.17;1.08;;;12.80;99.90;;;;;;5040990;28;20186;-67
2022/06/12 02:46:14;;;;;;;1.55;1.45;;;12.80;99.90;;;;;;5054701;28;20773;-66
2022/06/12 02:48:42;;;;;;;2.20;1.30;;;12.80;99.90;;;;;;5036344;28;20147;-65
2022/06/12 02:51:50;;;;;;;7.75;1.60;;;12.80;99.90;;;;;;5033351;28;20104;-65
2022/06/12 02:54:32;;;;;;;2.53;1.40;;;12.80;99.90;;;;;;5037103;28;20065;-65
2022/06/12 02:57:05;;;;;;;2.05;1.45;;;12.80;99.90;;;;;;5056847;28;20242;-67
2022/06/12 03:00:12;;;;;;;2.63;1.60;;;12.80;99.90;;;;;;5039927;28;20051;-66
2022/06/12 03:02:39;;;;;;;3.17;1.30;;;12.80;99.90;;;;;;4982873;28;20352;-66
2022/06/12 03:05:06;;;;;;;3.58;1.55;;;12.80;99.90;;;;;;5034672;28;20044;-66
2022/06/12 03:07:34;;;;;;;2.38;1.30;;;12.80;99.90;;;;;;5011971;28;20738;-66
2022/06/12 03:10:06;;;;;;;1.58;1.38;;;12.70;99.90;;;;;;5016519;28;20063;-67
2022/06/12 03:12:34;;;;;;;4.70;1.50;;;12.70;99.90;;;;;;5016350;28;20033;-66
2022/06/12 03:15:08;;;;;;;1.85;1.30;;;12.70;99.90;;;;;;4999872;28;20817;-66
2022/06/12 03:17:35;;;;;;;1.55;1.42;;;12.60;99.90;;;;;;5019013;28;20400;-66
2022/06/12 03:20:02;;;;;;;3.35;1.45;;;12.60;99.90;;;;;;5019927;28;20043;-67
2022/06/12 03:22:40;;;;;;;2.60;1.30;;;12.60;99.90;;;;;;5055044;28;20055;-65
2022/06/12 03:25:43;;;;;;;2.35;1.65;;;12.60;99.90;;;;;;5034509;28;20568;-66
2022/06/12 03:28:31;;;;;;;2.58;1.50;;;12.60;99.90;;;;;;4997793;28;20052;-65
2022/06/12 03:31:16;;;;;;;1.58;1.20;;;12.60;99.90;;;;;;5014560;28;20394;-65
2022/06/12 03:34:04;;;;;;;4.13;1.83;;;12.60;99.90;;;;;;4999942;28;20529;-66
2022/06/12 03:36:40;;;;;;;1.77;1.48;;;12.60;99.90;;;;;;5011841;28;20266;-66
2022/06/12 03:39:18;;;;;;;1.13;1.02;;;12.60;99.90;;;;;;5003744;28;20109;-66
2022/06/12 03:41:58;;;;;;;2.63;1.30;;;12.60;99.90;;;;;;5041144;28;20436;-66
2022/06/12 03:44:51;;;;;;;2.15;1.27;;;12.50;99.90;;;;;;5054635;28;20039;-66
2022/06/12 03:47:46;;;;;;;1.42;1.33;;;12.50;99.90;;;;;;5037317;28;20188;-66
2022/06/12 03:50:23;;;;;;;2.55;1.17;;;12.50;99.90;;;;;;5017170;28;20043;-66
2022/06/12 03:52:58;;;;;;;1.60;1.50;;;12.50;99.90;;;;;;5052846;28;20032;-66
2022/06/12 03:58:22;;;;;;;0.85;0.85;;;12.60;99.90;;;;;;5053073;28;20043;-66
2022/06/12 04:00:51;;;;;;;1.15;1.10;;;12.60;99.90;;;;;;5056785;28;20078;-67
2022/06/12 04:03:31;;;;;;;1.45;1.30;;;12.60;99.90;;;;;;5037592;28;20043;-66
2022/06/12 04:06:05;;;;;;;3.72;1.20;;;12.60;99.90;;;;;;5052955;28;20071;-66
2022/06/12 04:08:38;;;;;;;2.95;1.70;;;12.60;99.90;;;;;;5016649;28;20406;-66
2022/06/12 04:11:11;;;;;;;2.22;1.40;;;12.70;99.90;;;;;;4998362;28;20552;-66
2022/06/12 04:13:39;;;;;;;1.48;1.38;;;12.70;99.90;;;;;;5034884;28;20106;-66
2022/06/12 04:16:19;;;;;;;1.52;1.00;;;12.70;99.90;;;;;;5014778;28;20833;-66
2022/06/12 04:18:46;;;;;;;1.98;1.23;;;12.80;99.90;;;;;;4997752;28;20044;-67
2022/06/12 04:21:30;;;;;;;4.22;1.75;;;12.80;99.90;;;;;;4993778;28;20592;-66
2022/06/12 04:24:08;;;;;;;4.85;1.33;;;12.90;99.90;;;;;;4994775;28;20048;-65
2022/06/12 04:26:45;;;;;;;1.90;1.67;;;12.90;99.90;;;;;;5023672;28;20054;-66
2022/06/12 04:29:12;;;;;;;2.22;1.52;;;13.00;99.90;;;;;;5016705;28;20568;-66
2022/06/12 04:31:46;;;;;;;5.10;1.40;;;13.10;99.90;;;;;;5016316;28;20052;-66
2022/06/12 04:34:20;;;;;;;2.95;1.90;;;13.10;99.90;;;;;;5032758;28;20591;-67
2022/06/12 04:36:53;;;;;;;2.25;1.58;;;13.10;99.90;;;;;;5017776;28;20047;-62
2022/06/12 04:39:24;;;;;;;3.10;1.60;;;13.20;99.90;;;;;;5012951;28;20052;-61
2022/06/12 04:41:52;;;;;;;1.13;1.02;;;13.20;99.90;;;;;;5028837;28;20315;-68
2022/06/12 04:44:19;;;;;;;1.65;1.40;;;13.20;99.90;;;;;;5053600;28;20043;-62
2022/06/12 04:46:51;;;;;;;2.85;1.35;;;13.30;99.90;;;;;;5000838;28;20583;-63
2022/06/12 04:49:23;;;;;;;2.08;1.25;;;13.40;99.90;;;;;;5015846;28;20272;-61
2022/06/12 04:51:52;;;;;;;1.55;1.10;;;13.40;99.90;;;;;;5052855;28;20278;-63
2022/06/12 04:54:20;;;;;;;3.15;1.75;;;13.50;99.90;;;;;;5035872;28;20044;-65
2022/06/12 04:56:47;;;;;;;1.85;1.33;;;13.60;99.90;;;;;;5013834;28;20101;-65
2022/06/12 04:59:17;;;;;;;2.50;1.30;;;13.60;99.90;;;;;;5016122;28;20587;-67
2022/06/12 05:01:45;;;;;;;2.65;1.67;;;13.70;99.90;;;;;;5011999;28;20361;-68
2022/06/12 05:04:12;;;;;;;2.90;1.42;;;13.90;99.90;;;;;;4997542;28;20368;-70
2022/06/12 05:06:41;;;;;;;2.58;1.88;;;14.00;99.90;;;;;;5037191;28;20048;-62
2022/06/12 05:09:11;;;;;;;5.18;1.65;;;14.10;99.90;;;;;;5019336;28;20039;-62
2022/06/12 05:11:38;;;;;;;2.05;1.55;;;14.20;99.90;;;;;;4998778;28;20946;-61
2022/06/12 05:14:06;;;;;;;2.55;1.20;;;14.30;99.90;;;;;;4992669;28;20036;-68
2022/06/12 05:16:37;;;;;;;1.55;1.25;;;14.40;99.90;;;;;;5019066;28;20044;-61
2022/06/12 05:19:07;;;;;;;3.50;2.15;;;14.50;99.90;;;;;;5054012;28;20082;-63
2022/06/12 05:21:34;;;;;;;8.35;1.75;;;14.70;99.90;;;;;;5018885;28;20281;-64
2022/06/12 05:24:03;;;;;;;1.30;1.23;;;14.80;99.90;;;;;;5035418;28;20099;-65
2022/06/12 05:26:33;;;;;;;2.90;1.67;;;14.90;99.90;;;;;;5058521;28;20132;-70
2022/06/12 05:29:06;;;;;;;3.55;1.10;;;15.10;99.90;;;;;;5035109;28;20209;-62
2022/06/12 05:31:34;;;;;;;1.67;1.15;;;15.20;99.90;;;;;;5019755;28;20040;-65
2022/06/12 05:34:02;;;;;;;1.75;1.23;;;15.40;99.90;;;;;;5013159;28;20043;-68
2022/06/12 05:36:29;;;;;;;1.30;1.10;;;15.50;99.90;;;;;;5033126;28;20844;-64
2022/06/12 05:38:56;;;;;;;1.33;1.23;;;15.50;99.90;;;;;;5035171;28;20047;-64
2022/06/12 05:41:23;;;;;;;3.08;1.60;;;15.60;99.90;;;;;;5024362;28;20334;-64
2022/06/12 05:43:51;;;;;;;1.52;1.40;;;15.70;99.90;;;;;;5058744;28;20036;-64
2022/06/12 05:46:18;;;;;;;2.25;1.38;;;15.70;99.90;;;;;;5037969;28;20681;-63
2022/06/12 05:48:45;;;;;;;1.52;1.40;;;15.80;99.90;;;;;;5022699;28;20104;-64
2022/06/12 05:51:16;;;;;;;3.35;1.38;;;15.90;99.90;;;;;;5041288;28;20195;-63
2022/06/12 05:53:44;;;;;;;2.03;1.33;;;16.00;99.90;;;;;;5020896;28;20039;-63
2022/06/12 05:56:15;;;;;;;1.30;1.20;;;16.10;99.90;;;;;;5019878;28;20682;-69
2022/06/12 05:58:43;;;;;;;2.60;1.25;;;16.20;99.90;;;;;;5036897;28;20363;-69
2022/06/12 06:01:13;;;;;;;1.88;1.10;;;16.30;99.90;;;;;;5039245;28;20036;-69
2022/06/12 06:03:41;;;;;;;1.25;1.10;;;16.40;99.90;;;;;;5054023;28;20044;-65
2022/06/12 06:06:15;;;;;;;1.90;1.48;;;16.60;99.90;;;;;;5057851;28;20062;-63
2022/06/12 06:08:42;;;;;;;2.88;1.30;;;16.70;99.90;;;;;;5056304;28;20036;-62
2022/06/12 06:11:10;;;;;;;1.55;1.10;;;16.80;99.90;;;;;;5021384;28;20600;-61
2022/06/12 06:13:37;;;;;;;0.98;0.98;;;16.90;99.90;;;;;;5020716;28;20070;-62
2022/06/12 06:16:05;;;;;;;2.00;1.27;;;17.00;99.90;;;;;;5036962;28;20044;-63
2022/06/12 06:18:32;;;;;;;1.30;1.20;;;17.10;99.90;;;;;;5054447;28;20044;-62
2022/06/12 06:20:59;;;;;;;3.03;1.10;;;17.20;99.90;;;;;;5055540;28;20312;-62
2022/06/12 06:23:26;;;;;;;2.85;1.42;;;17.30;99.90;;;;;;5058965;28;20044;-62
2022/06/12 06:25:53;;;;;;;2.15;1.30;;;17.40;99.90;;;;;;5037340;28;20139;-62
2022/06/12 06:28:20;;;;;;;2.15;1.35;;;17.50;99.90;;;;;;5029207;28;20044;-62
2022/06/12 06:30:47;;;;;;;5.70;2.05;;;17.60;99.90;;;;;;4980782;28;20048;-62
2022/06/12 06:33:15;;;;;;;2.10;1.55;;;17.80;99.90;;;;;;5015515;28;20529;-63
2022/06/12 06:35:42;;;;;;;3.47;1.50;;;17.90;99.90;;;;;;5018606;28;20048;-63
2022/06/12 06:38:09;;;;;;;1.55;1.38;;;18.00;99.90;;;;;;5013685;28;20040;-64
2022/06/12 06:40:38;;;;;;;1.00;1.00;;;18.10;99.90;;;;;;5035670;28;20051;-63
2022/06/12 06:43:07;;;;;;;2.33;1.20;;;18.20;99.90;;;;;;5032136;28;20048;-63
2022/06/12 06:48:21;;;;;;;3.78;1.60;;;18.40;99.90;;;;;;5034033;28;20044;-62
2022/06/12 06:50:49;;;;;;;1.83;1.20;;;18.60;99.90;;;;;;5032079;28;20813;-62
2022/06/12 06:53:16;;;;;;;1.80;1.40;;;18.70;99.90;;;;;;5035042;28;20189;-63
2022/06/12 06:55:44;;;;;;;1.77;1.33;;;18.70;99.90;;;;;;5024088;28;20817;-63
2022/06/12 06:58:25;;;;;;;1.73;1.27;;;18.80;99.90;;;;;;5017339;28;20044;-63
2022/06/12 07:00:53;;;;;;;2.33;1.38;;;19.00;99.90;;;;;;5013333;28;20318;-52
2022/06/12 07:03:21;;;;;;;1.48;1.30;;;19.10;99.90;;;;;;5018473;28;20041;-53
2022/06/12 07:05:49;;;;;;;4.90;1.27;;;19.20;99.90;;;;;;5014432;28;20151;-53
2022/06/12 07:08:17;;;;;;;1.35;1.25;;;19.30;99.90;;;;;;4997230;28;20059;-53
2022/06/12 07:10:46;;;;;;;1.58;1.48;;;19.50;99.90;;;;;;5002829;28;20032;-62
2022/06/12 07:13:14;;;;;;;3.10;1.20;;;19.60;99.90;;;;;;5021725;28;20529;-58
2022/06/12 07:15:41;;;;;;;2.83;1.50;;;19.70;99.90;;;;;;5032111;28;20182;-54
2022/06/12 07:18:11;;;;;;;4.13;1.50;;;19.90;99.90;;;;;;5048879;28;20039;-54
2022/06/12 07:20:46;;;;;;;2.13;1.40;;;20.00;99.90;;;;;;5050847;28;20583;-51
2022/06/12 07:23:17;;;;;;;2.70;1.40;;;20.20;99.90;;;;;;5035934;28;20752;-52
2022/06/12 07:25:48;;;;;;;1.75;1.50;;;20.30;99.90;;;;;;5057287;28;20599;-53
2022/06/12 07:28:15;;;;;;;4.10;1.33;;;20.50;99.90;;;;;;5029655;28;20549;-50
2022/06/12 07:30:44;;;;;;;2.50;1.50;;;20.60;99.90;;;;;;4997304;28;20557;-53
2022/06/12 07:33:11;;;;;;;3.60;1.50;;;20.70;99.90;;;;;;5017624;28;20047;-53
2022/06/12 07:35:41;;;;;;;3.45;1.85;;;20.90;99.90;;;;;;5014724;28;20040;-54
2022/06/12 07:38:09;;;;;;;4.03;1.80;;;21.00;99.90;;;;;;5018894;28;20943;-53
2022/06/12 07:40:41;;;;;;;2.47;1.50;;;21.10;99.90;;;;;;5014280;28;20797;-52
2022/06/12 07:43:08;;;;;;;1.95;1.45;;;21.20;99.90;;;;;;5033486;28;20541;-55
2022/06/12 07:45:38;;;;;;;1.92;1.45;;;21.40;99.90;;;;;;5034104;28;20552;-54
2022/06/12 07:48:05;;;;;;;2.35;1.80;;;21.50;99.90;;;;;;4997338;28;20044;-66
2022/06/12 07:50:33;;;;;;;2.15;1.77;;;21.60;99.90;;;;;;5015931;28;20044;-65
2022/06/12 07:53:00;;;;;;;2.53;1.65;;;21.70;99.90;;;;;;5031983;28;20290;-64
2022/06/12 07:55:27;;;;;;;5.53;2.05;;;21.80;99.90;;;;;;5035241;28;20067;-65
2022/06/12 07:57:56;;;;;;;2.80;1.58;;;21.90;99.90;;;;;;5033804;28;20032;-65
2022/06/12 08:00:25;;;;;;;2.63;1.77;;;22.00;99.90;;;;;;5035439;28;20043;-65
2022/06/12 08:02:52;;;;;;;4.88;2.08;;;22.00;99.90;;;;;;5028953;28;20063;-63
2022/06/12 08:05:20;;;;;;;4.30;1.73;;;22.10;99.70;;;;;;5082578;28;20048;-62
2022/06/12 08:07:48;;;;;;;2.63;1.83;;;22.10;99.90;;;;;;5082654;28;20047;-62
2022/06/12 08:10:15;;;;;;;4.30;1.63;;;22.20;99.90;;;;;;5060045;28;20087;-65
2022/06/12 08:12:45;;;;;;;2.55;1.42;;;22.40;99.90;;;;;;5016781;28;20557;-64
2022/06/12 08:15:16;;;;;;;3.05;1.88;;;22.50;99.90;;;;;;5011055;28;20147;-64
2022/06/12 08:17:43;;;;;;;3.83;1.98;;;22.70;99.90;;;;;;5022369;28;20090;-65
2022/06/12 08:20:30;;;;;;;2.22;1.38;;;22.90;99.90;;;;;;5050636;28;20362;-65
2022/06/12 08:23:26;;;;;;;2.58;1.85;;;23.10;99.90;;;;;;5039439;28;20228;-64
2022/06/12 08:26:18;;;;;;;5.07;2.20;;;23.40;99.90;;;;;;5041688;28;20266;-64
2022/06/12 08:28:53;;;;;;;6.93;2.30;;;23.70;97.00;;;;;;5010598;28;20144;-63
2022/06/12 08:31:36;;;;;;;3.83;2.20;;;24.00;98.30;;;;;;5038789;28;20124;-62
2022/06/12 08:34:09;;;;;;;2.42;1.25;;;24.40;95.30;;;;;;5027262;28;20090;-64
2022/06/12 08:36:37;;;;;;;1.95;1.70;;;24.70;94.00;;;;;;5033914;28;20726;-65
2022/06/12 08:39:05;;;;;;;4.75;1.48;;;25.00;90.90;;;;;;5033957;28;20608;-65
2022/06/12 08:41:41;;;;;;;2.50;1.80;;;25.20;87.60;;;;;;5057034;28;20043;-66
2022/06/12 08:44:18;;;;;;;2.03;1.63;;;25.40;87.90;;;;;;5041810;28;20281;-63
2022/06/12 08:46:59;;;;;;;5.63;2.03;;;25.60;85.80;;;;;;5034089;28;20040;-64
2022/06/12 08:49:34;;;;;;;2.58;1.80;;;25.80;80.70;;;;;;5031872;28;20047;-64
2022/06/12 08:52:37;;;;;;;5.47;1.95;;;26.00;75.50;;;;;;5014240;28;20479;-64
2022/06/12 08:55:19;;;;;;;3.50;2.00;;;26.30;84.00;;;;;;5008218;28;20205;-63
2022/06/12 08:57:55;;;;;;;2.72;1.50;;;26.50;80.10;;;;;;5039518;28;20196;-64
2022/06/12 09:00:27;;;;;;;4.10;2.10;;;26.70;79.00;;;;;;5011431;28;20036;-64
2022/06/12 09:02:55;;;;;;;2.70;1.92;;;26.90;79.30;;;;;;4995909;28;20044;-64
2022/06/12 09:05:31;;;;;;;4.05;2.33;;;27.00;79.30;;;;;;4994438;28;20044;-63
2022/06/12 09:08:19;;;;;;;5.63;1.65;;;27.10;77.80;;;;;;5023963;28;20129;-64
2022/06/12 09:11:09;;;;;;;7.10;2.22;;;27.20;75.50;;;;;;5038376;28;20028;-62
2022/06/12 09:13:46;;;;;;;3.42;1.75;;;27.30;71.40;;;;;;5030819;28;20135;-64
2022/06/12 09:16:21;;;;;;;3.88;1.75;;;27.40;66.00;;;;;;5022079;28;20622;-65
2022/06/12 09:19:06;;;;;;;2.28;1.90;;;27.40;67.80;;;;;;5035839;28;20166;-63
2022/06/12 09:21:55;;;;;;;4.55;2.20;;;27.50;71.40;;;;;;5050559;28;20583;-63
2022/06/12 09:24:25;;;;;;;4.85;2.25;;;27.50;64.70;;;;;;5025553;28;20082;-63
2022/06/12 09:26:56;;;;;;;5.93;1.98;;;27.50;61.60;;;;;;5032397;28;20051;-64
2022/06/12 09:29:47;;;;;;;2.80;2.08;;;27.50;64.60;;;;;;4993997;28;20048;-64
2022/06/12 09:32:24;;;;;;;3.85;1.88;;;27.70;66.20;;;;;;5015943;28;20040;-64
2022/06/12 09:35:15;;;;;;;5.78;2.10;;;27.80;59.10;;;;;;5015322;28;20052;-63
2022/06/12 09:38:20;;;;;;;2.20;1.95;;;27.80;58.10;;;;;;4994516;28;20037;-66
2022/06/12 09:41:18;;;;;;;2.08;1.88;;;27.90;61.70;;;;;;4992233;28;20040;-64
2022/06/12 09:44:23;;;;;;;3.85;2.30;;;28.10;65.70;;;;;;5035207;28;20035;-65
2022/06/12 09:47:12;;;;;;;3.25;2.28;;;28.30;63.50;;;;;;5031656;28;20560;-63
2022/06/12 09:50:08;;;;;;;6.00;1.80;;;28.60;57.70;;;;;;5036154;28;20208;-65
2022/06/12 09:52:49;;;;;;;3.33;1.92;;;28.90;58.60;;;;;;5053036;28;20132;-64
2022/06/12 09:55:35;;;;;;;1.98;1.50;;;29.10;64.20;;;;;;5034609;28;20031;-66
2022/06/12 09:58:22;;;;;;;4.90;1.90;;;29.40;63.90;;;;;;5035147;28;20104;-68
2022/06/12 10:01:17;;;;;;;2.58;1.88;;;29.60;60.90;;;;;;5049792;28;20039;-68
2022/06/12 10:03:50;;;;;;;5.05;2.25;;;29.80;59.40;;;;;;5050458;28;20146;-69
2022/06/12 10:06:31;;;;;;;1.88;1.65;;;30.00;56.20;;;;;;5053616;28;20035;-68
2022/06/12 10:09:24;;;;;;;2.65;2.10;;;30.00;59.70;;;;;;5050234;28;20040;-66
2022/06/12 10:12:05;;;;;;;3.83;2.13;;;30.10;62.40;;;;;;5030153;28;20044;-67
2022/06/12 10:14:50;;;;;;;1.90;1.60;;;30.20;62.00;;;;;;5015604;28;20044;-66
2022/06/12 10:17:41;;;;;;;3.50;1.85;;;30.30;62.10;;;;;;5047012;28;20047;-67
2022/06/12 10:20:32;;;;;;;5.20;1.95;;;30.40;64.00;;;;;;5055574;28;20161;-66
2022/06/12 10:23:00;;;;;;;4.22;2.08;;;30.40;63.80;;;;;;5048702;28;20726;-68
2022/06/12 10:25:33;;;;;;;2.22;1.90;;;30.40;63.00;;;;;;5027403;28;20363;-68
2022/06/12 10:28:15;;;;;;;3.92;1.95;;;30.40;62.60;;;;;;5031789;28;20256;-69
2022/06/12 10:30:45;;;;;;;3.95;2.78;;;30.30;63.60;;;;;;4995157;28;20086;-67
2022/06/12 10:33:18;;;;;;;6.53;2.00;;;30.30;67.40;;;;;;4999993;28;20296;-67
2022/06/12 10:36:05;;;;;;;2.83;1.75;;;30.40;66.30;;;;;;5024649;28;20044;-67
2022/06/12 10:38:36;;;;;;;3.85;2.10;;;30.40;65.00;;;;;;5036506;28;20113;-67
2022/06/12 10:41:07;;;;;;;4.03;2.72;;;30.50;63.20;;;;;;5038345;28;20055;-66
2022/06/12 10:43:43;;;;;;;5.22;2.50;;;30.50;61.70;;;;;;5030660;28;20240;-69
2022/06/12 10:46:36;;;;;;;1.92;1.83;;;30.50;64.90;;;;;;5039124;28;20377;-68
2022/06/12 10:49:06;;;;;;;2.50;2.10;;;30.50;63.10;;;;;;5028986;28;20039;-68
2022/06/12 10:51:39;;;;;;;2.75;2.42;;;30.60;64.20;;;;;;5037101;28;20174;-67
2022/06/12 10:54:21;;;;;;;3.05;1.90;;;30.60;62.30;;;;;;5016481;28;20028;-68
2022/06/12 10:57:04;;;;;;;5.43;2.22;;;30.70;61.80;;;;;;4998121;28;20155;-67
2022/06/12 10:59:49;;;;;;;2.60;2.40;;;30.70;60.50;;;;;;5034856;28;20139;-67
2022/06/12 11:02:32;;;;;;;3.88;2.40;;;30.80;59.50;;;;;;5037224;28;20040;-68
2022/06/12 11:05:23;;;;;;;6.78;2.47;;;30.70;59.30;;;;;;5036168;28;20125;-68
2022/06/12 11:08:06;;;;;;;10.10;2.47;;;30.70;59.50;;;;;;5037444;28;20144;-64
2022/06/12 11:10:49;;;;;;;1.70;1.60;;;30.70;58.80;;;;;;5027362;28;20200;-65
2022/06/12 11:14:11;;;;;;;2.10;2.00;;;30.60;58.10;;;;;;4978208;28;20364;-66
2022/06/12 11:16:50;;;;;;;1.98;1.77;;;30.60;58.00;;;;;;4936157;28;20038;-64
2022/06/12 11:19:34;;;;;;;1.92;1.58;;;30.70;57.30;;;;;;5028722;28;20130;-64
2022/06/12 11:22:19;;;;;;;5.68;1.70;;;30.70;57.20;;;;;;5050573;28;20043;-64
2022/06/12 11:24:56;;;;;;;2.17;1.40;;;30.80;56.50;;;;;;5056815;28;20233;-64
2022/06/12 11:27:48;;;;;;;7.90;1.77;;;30.80;56.10;;;;;;5034652;28;20047;-65
2022/06/12 11:30:46;;;;;;;1.73;1.63;;;30.90;54.20;;;;;;5014064;28;20036;-65
2022/06/12 11:33:55;;;;;;;3.97;2.20;;;30.80;54.70;;;;;;5031992;28;20513;-64
2022/06/12 11:36:43;;;;;;;1.60;1.50;;;30.80;55.90;;;;;;5042953;28;20185;-63
2022/06/12 11:39:44;;;;;;;1.67;1.55;;;30.80;55.40;;;;;;5013327;28;20798;-63
2022/06/12 11:42:59;;;;;;;4.00;1.83;;;30.90;56.90;;;;;;5027903;28;20057;-64
2022/06/12 11:46:16;;;;;;;2.53;2.13;;;31.00;55.70;;;;;;5040798;28;20438;-64
2022/06/12 11:49:20;;;;;;;2.92;1.95;;;30.90;56.10;;;;;;5030640;28;20055;-64
2022/06/12 11:52:12;;;;;;;4.57;1.67;;;30.80;54.70;;;;;;5020730;28;20121;-65
2022/06/12 11:55:23;;;;;;;7.90;1.73;;;30.80;55.00;;;;;;5048277;28;20073;-65
2022/06/12 11:58:08;;;;;;;3.42;1.95;;;30.80;56.40;;;;;;4998176;28;20040;-65
2022/06/12 12:01:11;;;;;;;1.40;1.30;;;30.80;53.90;;;;;;5043219;28;20556;-64
2022/06/12 12:03:51;;;;;;;2.13;1.92;;;30.80;54.80;;;;;;5007098;28;20051;-64
2022/06/12 12:06:35;;;;;;;2.83;1.70;;;31.00;55.50;;;;;;5039158;28;20378;-64
2022/06/12 12:09:19;;;;;;;4.88;1.77;;;31.10;55.90;;;;;;5029493;28;20067;-64
2022/06/12 12:11:51;;;;;;;2.17;1.52;;;31.10;53.20;;;;;;5057512;28;20782;-64
2022/06/12 12:14:29;;;;;;;3.13;1.60;;;30.90;54.20;;;;;;5047407;28;20588;-64
2022/06/12 12:17:03;;;;;;;2.65;2.25;;;30.90;54.70;;;;;;5023351;28;20046;-65
2022/06/12 12:20:07;;;;;;;2.17;1.60;;;30.80;54.40;;;;;;5054063;28;20059;-65
2022/06/12 12:22:55;;;;;;;2.30;1.60;;;30.90;54.30;;;;;;5043308;28;20576;-64
2022/06/12 12:25:42;;;;;;;4.43;1.77;;;30.90;53.20;;;;;;5056260;28;20036;-64
2022/06/12 12:28:28;;;;;;;1.98;1.33;;;30.90;53.50;;;;;;5046962;28;20032;-65
2022/06/12 12:31:04;;;;;;;3.30;2.15;;;31.00;52.40;;;;;;5033479;28;20040;-66
2022/06/12 12:33:32;;;;;;;2.65;1.48;;;31.00;51.90;;;;;;5035884;28;20040;-66
2022/06/12 12:41:45;;;;;;;2.38;1.55;;;30.70;50.40;;;;;;5023215;28;20040;-65
2022/06/12 12:44:16;;;;;;;4.15;1.35;;;30.60;50.90;;;;;;5057775;28;20036;-64
2022/06/12 12:46:49;;;;;;;2.33;1.60;;;30.50;52.00;;;;;;5050474;28;20045;-63
2022/06/12 12:49:22;;;;;;;5.25;1.70;;;30.50;54.00;;;;;;5052207;28;20044;-64
2022/06/12 12:51:50;;;;;;;2.67;1.65;;;30.70;51.20;;;;;;5034728;28;20880;-64
2022/06/12 12:54:20;;;;;;;1.90;1.30;;;30.80;50.70;;;;;;5047198;28;20046;-64
2022/06/12 12:57:02;;;;;;;9.70;1.65;;;30.80;50.30;;;;;;5019524;28;20070;-64
2022/06/12 12:59:40;;;;;;;16.98;1.50;;;31.00;51.90;;;;;;5035764;28;20852;-65
2022/06/12 13:02:24;;;;;;;3.55;1.42;;;31.10;51.30;;;;;;5012108;28;20051;-65
2022/06/12 13:04:55;;;;;;;2.38;1.67;;;31.30;51.40;;;;;;5026685;28;20150;-65
2022/06/12 13:07:59;;;;;;;2.85;1.40;;;31.40;50.30;;;;;;5037547;28;20032;-65
2022/06/12 13:11:03;;;;;;;3.10;1.50;;;31.50;51.10;;;;;;5036372;28;20259;-64
2022/06/12 13:13:49;;;;;;;5.93;1.80;;;31.60;50.80;;;;;;4994367;28;20044;-64
2022/06/12 13:16:37;;;;;;;1.73;1.50;;;31.70;49.40;;;;;;5014319;28;20041;-64
2022/06/12 13:19:16;;;;;;;3.05;1.60;;;31.60;49.40;;;;;;5012079;28;20231;-64
2022/06/12 13:21:43;;;;;;;5.68;2.00;;;31.60;50.90;;;;;;5014222;28;20586;-64
2022/06/12 13:24:27;;;;;;;5.40;1.45;;;31.60;50.90;;;;;;5014412;28;20063;-63
2022/06/12 13:26:56;;;;;;;1.67;1.40;;;31.60;50.10;;;;;;4978232;28;20041;-64
2022/06/12 13:29:25;;;;;;;5.55;1.30;;;31.70;50.80;;;;;;5032656;28;20044;-64
2022/06/12 13:32:00;;;;;;;3.47;1.50;;;31.70;47.80;;;;;;5013325;28;20052;-64
2022/06/12 13:34:30;;;;;;;4.82;1.48;;;31.70;49.30;;;;;;5035948;28;20043;-64
2022/06/12 13:36:58;;;;;;;2.95;1.27;;;31.80;49.10;;;;;;5035248;28;20237;-64
2022/06/12 13:39:34;;;;;;;1.45;1.30;;;31.90;48.80;;;;;;5036644;28;20032;-64
2022/06/12 13:42:07;;;;;;;1.60;1.48;;;32.00;50.20;;;;;;5043483;28;20067;-64
2022/06/12 13:44:39;;;;;;;3.42;1.40;;;32.00;48.80;;;;;;5038523;28;20036;-65
2022/06/12 13:47:21;;;;;;;1.85;1.25;;;32.00;45.20;;;;;;5041023;28;20740;-65
2022/06/12 13:50:13;;;;;;;2.15;1.40;;;31.90;45.10;;;;;;5058282;28;20766;-65
2022/06/12 13:52:54;;;;;;;2.95;1.50;;;32.00;45.40;;;;;;5058514;28;20319;-65
2022/06/12 13:55:54;;;;;;;1.77;1.15;;;32.00;46.70;;;;;;5038259;28;20213;-65